Time;durP1;ratioP1;P1;durP2;ratioP2;P2;SDS_P1;SDS_P2;PMS_P1;PMS_P2;Temp;Humidity;BMP_temperature;BMP_pressure;BME280_temperature;BME280_humidity;BME280_pressure;Samples;Min_cycle;Max_cycle;Signal;HPM_P1;HPM_P2
2021/03/14 00:01:24;;;;;;;1.50;0.63;;;;;;;3.14;83.24;98969.97;5061562;28;20281;-77
2021/03/14 00:03:50;;;;;;;1.83;0.80;;;;;;;3.12;83.46;98973.47;5065754;28;20206;-77
2021/03/14 00:06:17;;;;;;;0.90;0.70;;;;;;;3.16;83.07;98978.50;5062620;28;20666;-76
2021/03/14 00:08:43;;;;;;;1.80;0.80;;;;;;;3.11;83.39;98977.75;5057888;28;20329;-77
2021/03/14 00:11:10;;;;;;;0.70;0.50;;;;;;;3.07;83.49;98977.88;5061328;28;20287;-76
2021/03/14 00:13:38;;;;;;;1.50;0.67;;;;;;;3.01;83.78;98976.28;5045251;28;20594;-76
2021/03/14 00:16:06;;;;;;;0.83;0.63;;;;;;;3.05;83.39;98987.34;5064440;28;20199;-74
2021/03/14 00:18:34;;;;;;;0.60;0.60;;;;;;;3.07;83.39;98988.16;5042258;28;20341;-77
2021/03/14 00:21:01;;;;;;;2.50;0.70;;;;;;;3.01;83.46;98986.56;5068222;28;20217;-76
2021/03/14 00:23:28;;;;;;;1.53;0.80;;;;;;;2.98;83.73;98981.47;5045156;28;20194;-73
2021/03/14 00:25:54;;;;;;;4.60;0.77;;;;;;;3.08;83.18;98979.53;5064003;28;20190;-75
2021/03/14 00:28:21;;;;;;;2.57;0.70;;;;;;;3.10;82.98;98981.22;5064793;28;20668;-76
2021/03/14 00:30:47;;;;;;;0.87;0.80;;;;;;;3.09;82.85;98976.94;5066053;28;20276;-77
2021/03/14 00:33:13;;;;;;;2.73;0.97;;;;;;;3.15;82.19;98968.22;5063328;28;20616;-76
2021/03/14 00:35:39;;;;;;;2.00;0.80;;;;;;;3.13;82.20;98978.59;5060966;28;20847;-76
2021/03/14 00:38:05;;;;;;;1.20;0.70;;;;;;;3.18;81.81;98973.31;5062825;28;20207;-76
2021/03/14 00:40:33;;;;;;;2.50;0.90;;;;;;;3.23;81.36;98974.06;5060080;28;20226;-76
2021/03/14 00:43:01;;;;;;;4.13;0.57;;;;;;;3.20;81.95;98975.00;5046803;28;20694;-74
2021/03/14 00:45:27;;;;;;;1.10;0.80;;;;;;;3.19;81.88;98972.44;5063520;28;20218;-75
2021/03/14 00:47:54;;;;;;;1.27;0.77;;;;;;;3.17;81.60;98980.19;5048261;28;20202;-77
2021/03/14 00:50:20;;;;;;;3.17;0.80;;;;;;;3.09;82.42;98979.50;5061802;28;20663;-77
2021/03/14 00:52:47;;;;;;;2.40;0.87;;;;;;;3.10;82.21;98980.38;5057175;28;20215;-76
2021/03/14 00:55:14;;;;;;;3.37;0.90;;;;;;;3.09;81.84;98983.81;5060423;28;20710;-76
2021/03/14 00:57:41;;;;;;;1.57;0.67;;;;;;;3.11;81.80;98990.63;5062893;28;20206;-75
2021/03/14 01:00:08;;;;;;;1.07;0.70;;;;;;;3.09;82.10;98996.69;5047353;28;20218;-75
2021/03/14 01:02:35;;;;;;;1.63;0.80;;;;;;;3.17;81.40;98990.50;5037448;28;20214;-76
2021/03/14 01:05:01;;;;;;;1.50;0.73;;;;;;;3.17;81.80;98997.38;5047863;28;20628;-77
2021/03/14 01:07:27;;;;;;;1.03;0.67;;;;;;;3.11;81.73;99005.22;5039925;28;20229;-77
2021/03/14 01:09:54;;;;;;;2.20;0.73;;;;;;;3.09;82.09;99002.69;5045023;28;20249;-76
2021/03/14 01:12:21;;;;;;;1.57;0.80;;;;;;;2.96;82.46;99014.97;5044595;28;20781;-76
2021/03/14 01:14:54;;;;;;;1.93;0.90;;;;;;;2.91;82.76;99011.66;5044366;28;20203;-78
2021/03/14 01:17:29;;;;;;;2.20;0.90;;;;;;;2.97;82.85;99018.41;5041877;28;20203;-77
2021/03/14 01:19:55;;;;;;;1.87;0.90;;;;;;;2.90;82.94;99016.81;5061839;28;20241;-77
2021/03/14 01:22:21;;;;;;;1.03;0.70;;;;;;;2.91;83.06;99026.25;5060183;28;20223;-74
2021/03/14 01:24:47;;;;;;;2.03;1.00;;;;;;;2.86;83.00;99036.63;5063353;28;22093;-76
2021/03/14 01:27:13;;;;;;;1.00;0.87;;;;;;;2.88;83.27;99027.16;5058611;28;20245;-76
2021/03/14 01:29:40;;;;;;;1.37;0.87;;;;;;;2.82;83.09;99014.44;5057529;28;20817;-76
2021/03/14 01:32:07;;;;;;;1.80;1.00;;;;;;;2.83;83.37;99018.69;5066520;28;20638;-75
2021/03/14 01:34:33;;;;;;;2.20;0.60;;;;;;;2.79;83.69;99030.75;5048434;28;20199;-73
2021/03/14 01:36:59;;;;;;;1.47;0.80;;;;;;;2.89;83.19;99015.16;5060411;28;20290;-76
2021/03/14 01:39:25;;;;;;;1.33;0.80;;;;;;;2.92;83.24;99015.06;5040910;28;20313;-75
2021/03/14 01:41:51;;;;;;;1.77;0.70;;;;;;;2.88;83.30;99016.84;5062712;28;20202;-75
2021/03/14 01:44:17;;;;;;;2.10;0.90;;;;;;;2.85;83.79;99016.94;5059546;28;20634;-75
2021/03/14 01:46:43;;;;;;;1.20;0.80;;;;;;;2.86;83.52;99020.34;5045266;28;20715;-77
2021/03/14 01:49:11;;;;;;;2.07;0.90;;;;;;;2.90;83.15;99017.66;5067929;28;20214;-77
2021/03/14 01:51:37;;;;;;;3.17;1.10;;;;;;;2.84;83.44;99025.53;5063133;28;20594;-76
2021/03/14 01:54:03;;;;;;;1.70;1.13;;;;;;;2.83;83.58;99026.41;5067896;28;20238;-75
2021/03/14 01:56:29;;;;;;;2.20;1.00;;;;;;;2.83;83.49;99024.69;5061899;28;20202;-76
2021/03/14 01:58:56;;;;;;;2.30;0.93;;;;;;;2.80;83.42;99019.59;5063496;28;20273;-75
2021/03/14 02:01:22;;;;;;;2.27;1.00;;;;;;;2.81;83.33;99021.31;5055389;28;20283;-75
2021/03/14 02:03:48;;;;;;;1.73;0.90;;;;;;;2.86;83.07;99025.50;5033652;28;20238;-77
2021/03/14 02:06:15;;;;;;;3.47;0.90;;;;;;;2.83;83.23;99024.69;5048932;28;20922;-77
2021/03/14 02:08:41;;;;;;;2.70;1.20;;;;;;;2.77;83.51;99029.09;5058995;28;20230;-77
2021/03/14 02:11:07;;;;;;;2.10;0.97;;;;;;;2.73;83.65;99017.19;5064054;28;20260;-77
2021/03/14 02:13:37;;;;;;;1.53;0.90;;;;;;;2.67;83.74;99014.72;5059151;28;20293;-76
2021/03/14 02:16:08;;;;;;;1.47;1.07;;;;;;;2.70;83.90;99014.66;5041950;28;20207;-76
2021/03/14 02:18:37;;;;;;;1.53;0.90;;;;;;;2.63;84.18;99016.50;5059461;28;20353;-77
2021/03/14 02:21:03;;;;;;;2.53;1.03;;;;;;;2.53;84.95;99018.41;5042134;28;20195;-76
2021/03/14 02:23:41;;;;;;;1.10;1.00;;;;;;;2.60;84.42;99026.84;5037577;28;20195;-77
2021/03/14 02:26:11;;;;;;;2.47;1.23;;;;;;;2.63;84.32;99008.78;5062326;28;20967;-77
2021/03/14 02:28:39;;;;;;;1.67;1.10;;;;;;;2.66;84.15;99013.88;5057793;28;20882;-76
2021/03/14 02:31:07;;;;;;;3.53;0.93;;;;;;;2.62;84.51;99007.94;5046246;28;20209;-77
2021/03/14 02:33:35;;;;;;;2.97;1.10;;;;;;;2.56;84.84;99007.22;5061096;28;20223;-72
2021/03/14 02:36:01;;;;;;;1.43;1.00;;;;;;;2.61;84.36;99015.69;5063760;28;20663;-73
2021/03/14 02:38:28;;;;;;;2.23;1.00;;;;;;;2.64;84.18;99025.94;5043786;28;20230;-75
2021/03/14 02:40:56;;;;;;;1.60;1.10;;;;;;;2.65;84.07;99019.91;5059156;28;20194;-76
2021/03/14 02:43:23;;;;;;;1.20;1.07;;;;;;;2.60;84.32;99012.28;5060980;28;20222;-76
2021/03/14 02:45:51;;;;;;;1.20;0.97;;;;;;;2.56;84.35;99015.78;5061406;28;20202;-75
2021/03/14 02:48:18;;;;;;;2.27;1.00;;;;;;;2.53;84.63;99009.84;5061872;28;20235;-76
2021/03/14 02:50:45;;;;;;;2.93;0.90;;;;;;;2.52;84.99;99000.44;5057190;28;20211;-75
2021/03/14 02:53:12;;;;;;;1.37;1.07;;;;;;;2.60;83.91;99014.84;5064273;28;20629;-74
2021/03/14 02:55:38;;;;;;;2.60;0.90;;;;;;;2.68;83.88;99013.84;5044470;28;20278;-77
2021/03/14 02:58:05;;;;;;;3.13;1.10;;;;;;;2.69;83.51;99020.69;5063071;28;20198;-76
2021/03/14 03:00:33;;;;;;;1.20;1.10;;;;;;;2.63;83.97;99013.94;5061539;28;20264;-74
2021/03/14 03:03:04;;;;;;;4.67;1.30;;;;;;;2.77;83.32;99018.81;5057465;28;20653;-76
2021/03/14 03:05:31;;;;;;;4.43;1.53;;;;;;;2.69;83.52;99016.41;5063099;28;20218;-74
2021/03/14 03:07:59;;;;;;;0.97;0.90;;;;;;;2.71;83.47;99014.66;5059961;28;20195;-76
2021/03/14 03:10:28;;;;;;;5.97;1.60;;;;;;;2.77;82.95;99023.97;5050864;28;20214;-77
2021/03/14 03:12:57;;;;;;;2.00;1.13;;;;;;;2.74;83.35;99003.44;5055535;28;20574;-75
2021/03/14 03:15:25;;;;;;;1.67;1.17;;;;;;;2.73;83.33;99012.88;5060875;28;20697;-75
2021/03/14 03:17:52;;;;;;;2.23;1.10;;;;;;;2.80;82.75;99004.16;5055787;28;20205;-76
2021/03/14 03:20:19;;;;;;;3.70;1.03;;;;;;;2.77;83.22;98993.91;5055423;28;20194;-74
2021/03/14 03:22:47;;;;;;;1.30;1.00;;;;;;;2.81;82.43;99016.16;5067200;28;20290;-77
2021/03/14 03:25:13;;;;;;;1.70;1.00;;;;;;;2.87;82.10;99016.88;5040909;28;20551;-76
2021/03/14 03:27:39;;;;;;;2.30;1.07;;;;;;;2.83;82.05;99019.53;5031995;28;20257;-73
2021/03/14 03:30:08;;;;;;;2.53;0.93;;;;;;;2.81;82.33;99023.00;5058646;28;20214;-77
2021/03/14 03:32:35;;;;;;;3.57;1.27;;;;;;;2.81;82.11;99015.28;5040056;28;20218;-76
2021/03/14 03:35:01;;;;;;;6.17;1.60;;;;;;;2.82;82.14;99030.72;5058977;28;20761;-75
2021/03/14 03:37:28;;;;;;;3.43;1.20;;;;;;;2.82;81.96;99020.41;5035244;28;20205;-75
2021/03/14 03:39:54;;;;;;;1.90;1.00;;;;;;;2.84;81.93;99003.19;5061511;28;20229;-77
2021/03/14 03:42:25;;;;;;;2.93;1.10;;;;;;;2.86;81.72;99030.66;5062417;28;20662;-77
2021/03/14 03:44:53;;;;;;;3.23;1.23;;;;;;;2.90;81.26;99034.84;5056112;28;20213;-76
2021/03/14 03:47:20;;;;;;;4.57;1.10;;;;;;;2.89;81.75;99026.28;5040442;28;20311;-75
2021/03/14 03:49:51;;;;;;;5.30;1.30;;;;;;;2.90;81.79;99020.25;5057475;28;20253;-76
2021/03/14 03:52:18;;;;;;;2.43;1.20;;;;;;;2.95;81.15;99026.16;5059359;28;20302;-77
2021/03/14 03:54:48;;;;;;;3.07;1.20;;;;;;;2.90;81.75;99027.13;5061486;28;20213;-77
2021/03/14 03:57:16;;;;;;;1.80;1.27;;;;;;;2.83;82.35;99027.25;5038827;28;20206;-76
2021/03/14 03:59:43;;;;;;;2.23;1.50;;;;;;;2.93;81.43;99039.94;5061478;28;20229;-75
2021/03/14 04:02:11;;;;;;;3.60;1.33;;;;;;;2.96;81.40;99030.44;5038069;28;20252;-76
2021/03/14 04:04:40;;;;;;;2.07;1.10;;;;;;;3.04;80.92;99032.84;5059474;28;20844;-76
2021/03/14 04:07:08;;;;;;;2.60;1.17;;;;;;;3.05;80.81;99038.84;5060514;28;20198;-75
2021/03/14 04:09:35;;;;;;;3.93;1.27;;;;;;;3.05;80.89;99015.69;5061206;28;20237;-75
2021/03/14 04:12:02;;;;;;;1.43;1.10;;;;;;;2.97;81.33;99027.00;5064426;28;20348;-76
2021/03/14 04:14:30;;;;;;;2.00;1.17;;;;;;;2.96;81.07;99038.16;5040514;28;20994;-76
2021/03/14 04:16:56;;;;;;;2.37;1.17;;;;;;;3.00;80.99;99042.34;5055957;28;20206;-77
2021/03/14 04:19:27;;;;;;;3.40;1.77;;;;;;;3.00;80.78;99044.94;5057426;28;20576;-74
2021/03/14 04:21:54;;;;;;;3.03;1.43;;;;;;;2.91;81.46;99042.53;5064218;28;20250;-76
2021/03/14 04:24:22;;;;;;;5.63;1.60;;;;;;;2.88;81.35;99041.75;5056668;28;20601;-77
2021/03/14 04:26:49;;;;;;;2.23;1.33;;;;;;;2.90;81.13;99048.56;5059924;28;20207;-77
2021/03/14 04:29:19;;;;;;;2.63;1.27;;;;;;;2.92;80.80;99061.41;5056672;28;20300;-75
2021/03/14 04:31:47;;;;;;;2.03;1.40;;;;;;;2.93;80.66;99063.97;5061213;28;20700;-75
2021/03/14 04:34:16;;;;;;;1.37;1.10;;;;;;;2.94;80.39;99073.38;5062471;28;20249;-77
2021/03/14 04:36:44;;;;;;;2.07;1.47;;;;;;;2.95;80.65;99074.22;5058213;28;20660;-75
2021/03/14 04:39:10;;;;;;;5.63;1.13;;;;;;;2.94;80.57;99075.97;5063021;28;20226;-75
2021/03/14 04:41:38;;;;;;;3.77;1.27;;;;;;;2.97;80.56;99075.03;5060962;28;20219;-74
2021/03/14 04:44:06;;;;;;;5.37;1.50;;;;;;;2.93;80.96;99076.00;5064860;28;20198;-77
2021/03/14 04:46:34;;;;;;;4.53;1.30;;;;;;;3.04;79.79;99084.34;5044360;28;20282;-74
2021/03/14 04:49:00;;;;;;;3.67;1.40;;;;;;;3.06;79.99;99084.31;5045712;28;20736;-75
2021/03/14 04:51:52;;;;;;;1.53;1.33;;;;;;;3.12;80.00;99085.03;5065544;28;20202;-74
2021/03/14 04:54:19;;;;;;;3.67;1.57;;;;;;;3.13;80.24;99091.91;5045569;28;20261;-77
2021/03/14 04:56:45;;;;;;;4.20;1.47;;;;;;;3.16;79.97;99096.13;5038968;28;20627;-77
2021/03/14 04:59:14;;;;;;;3.70;1.50;;;;;;;3.14;80.47;99108.19;5041114;28;20638;-76
2021/03/14 05:01:43;;;;;;;5.30;1.67;;;;;;;3.14;79.99;99103.88;5057196;28;20693;-77
2021/03/14 05:04:13;;;;;;;3.47;1.60;;;;;;;3.14;80.10;99092.75;5045468;28;20198;-77
2021/03/14 05:06:41;;;;;;;3.10;1.53;;;;;;;3.19;79.59;99114.94;5048652;28;20202;-76
2021/03/14 05:09:11;;;;;;;3.67;1.60;;;;;;;3.16;80.06;99119.31;5062225;28;20219;-77
2021/03/14 05:11:40;;;;;;;1.90;1.23;;;;;;;3.16;79.74;99112.41;5043988;28;20207;-77
2021/03/14 05:14:08;;;;;;;4.13;1.33;;;;;;;3.17;79.91;99121.03;5039994;28;20207;-75
2021/03/14 05:16:36;;;;;;;1.83;1.50;;;;;;;3.14;79.83;99129.63;5065785;28;20206;-75
2021/03/14 05:19:03;;;;;;;2.60;1.50;;;;;;;3.20;79.50;99126.97;5062574;28;20223;-77
2021/03/14 05:21:30;;;;;;;2.17;1.40;;;;;;;3.20;79.33;99126.09;5058945;28;20190;-76
2021/03/14 05:23:57;;;;;;;4.50;1.70;;;;;;;3.22;79.35;99139.81;5061576;28;20202;-77
2021/03/14 05:26:24;;;;;;;2.97;1.77;;;;;;;3.22;79.19;99130.34;5040196;28;20206;-74
2021/03/14 05:28:51;;;;;;;3.17;1.70;;;;;;;3.28;79.16;99141.41;5066934;28;20222;-77
2021/03/14 05:31:32;;;;;;;2.67;1.40;;;;;;;3.28;79.00;99134.53;5065408;28;20198;-73
2021/03/14 05:34:01;;;;;;;2.03;1.67;;;;;;;3.26;78.78;99138.84;5051831;28;20225;-76
2021/03/14 05:36:29;;;;;;;1.67;1.40;;;;;;;3.27;78.91;99148.25;5045580;28;20210;-77
2021/03/14 05:38:59;;;;;;;4.03;1.97;;;;;;;3.32;78.55;99148.19;5064990;28;20302;-77
2021/03/14 05:41:25;;;;;;;3.17;1.50;;;;;;;3.34;78.38;99155.03;5058558;28;20206;-77
2021/03/14 05:43:52;;;;;;;1.93;1.20;;;;;;;3.32;78.93;99150.75;5042778;28;20233;-77
2021/03/14 05:46:19;;;;;;;1.70;1.60;;;;;;;3.32;78.20;99158.50;5046819;28;20207;-76
2021/03/14 05:48:46;;;;;;;2.07;1.60;;;;;;;3.31;78.96;99154.25;5062896;28;20257;-77
2021/03/14 05:51:16;;;;;;;3.07;1.43;;;;;;;3.33;78.28;99168.78;5058952;28;20682;-77
2021/03/14 05:53:45;;;;;;;2.53;1.53;;;;;;;3.34;78.55;99165.31;5058982;28;20214;-74
2021/03/14 05:56:12;;;;;;;2.17;1.50;;;;;;;3.38;78.30;99176.41;5058710;28;20245;-76
2021/03/14 05:58:39;;;;;;;3.37;1.40;;;;;;;3.39;78.53;99188.41;5061270;28;20226;-77
2021/03/14 06:01:11;;;;;;;3.80;1.80;;;;;;;3.42;78.40;99183.19;5065237;28;20205;-77
2021/03/14 06:03:38;;;;;;;2.53;1.47;;;;;;;3.50;77.82;99190.75;5058416;28;20663;-75
2021/03/14 06:06:06;;;;;;;3.53;1.30;;;;;;;3.50;77.86;99194.22;5071403;28;20596;-77
2021/03/14 06:08:33;;;;;;;3.60;1.60;;;;;;;3.52;77.92;99202.75;5060595;28;20222;-74
2021/03/14 06:11:01;;;;;;;3.47;1.80;;;;;;;3.57;77.53;99212.94;5063639;28;20198;-78
2021/03/14 06:13:28;;;;;;;2.33;1.63;;;;;;;3.55;78.23;99207.84;5065186;28;20584;-75
2021/03/14 06:15:54;;;;;;;1.83;1.50;;;;;;;3.56;77.93;99213.84;5045050;28;20206;-76
2021/03/14 06:18:20;;;;;;;3.23;1.60;;;;;;;3.57;77.60;99216.41;5045800;28;20218;-75
2021/03/14 06:20:46;;;;;;;2.40;1.50;;;;;;;3.62;77.60;99229.19;5040165;28;20738;-76
2021/03/14 06:23:14;;;;;;;1.53;1.40;;;;;;;3.64;77.66;99236.88;5066270;28;20194;-77
2021/03/14 06:25:41;;;;;;;2.30;1.73;;;;;;;3.67;77.01;99242.81;5058520;28;20201;-77
2021/03/14 06:28:09;;;;;;;4.17;1.80;;;;;;;3.67;77.25;99249.72;5064908;28;20255;-76
2021/03/14 06:30:36;;;;;;;2.43;1.70;;;;;;;3.69;77.38;99246.22;5057031;28;20281;-75
2021/03/14 06:33:04;;;;;;;2.20;1.47;;;;;;;3.69;77.15;99253.94;5063294;28;20226;-77
2021/03/14 06:35:37;;;;;;;2.07;1.40;;;;;;;3.70;77.42;99249.66;5064432;28;20195;-76
2021/03/14 06:38:17;;;;;;;1.43;1.33;;;;;;;3.71;78.05;99264.22;5058356;28;20188;-77
2021/03/14 06:40:43;;;;;;;3.17;1.87;;;;;;;3.74;77.15;99277.06;5065714;28;20227;-77
2021/03/14 06:43:12;;;;;;;2.67;1.93;;;;;;;3.75;77.22;99266.72;5058292;28;20199;-75
2021/03/14 06:45:39;;;;;;;3.80;1.80;;;;;;;3.77;77.35;99284.75;5065012;28;20570;-75
2021/03/14 06:48:06;;;;;;;2.00;1.60;;;;;;;3.76;77.38;99286.50;5037007;28;20190;-77
2021/03/14 06:50:39;;;;;;;2.43;1.60;;;;;;;3.76;77.48;99293.34;5039895;28;20200;-77
2021/03/14 06:53:11;;;;;;;2.80;1.80;;;;;;;3.75;78.92;99302.81;5043868;28;20224;-75
2021/03/14 06:55:38;;;;;;;3.17;1.90;;;;;;;3.71;79.53;99313.22;5059107;28;20259;-77
2021/03/14 06:58:24;;;;;;;2.13;1.43;;;;;;;3.71;79.54;99323.53;5041712;28;20332;-75
2021/03/14 07:01:12;;;;;;;2.87;1.90;;;;;;;3.66;80.32;99333.06;5036521;28;20226;-74
2021/03/14 07:03:40;;;;;;;3.97;1.83;;;;;;;3.63;81.07;99338.31;5057524;28;20213;-77
2021/03/14 07:06:17;;;;;;;3.53;2.43;;;;;;;3.61;81.50;99338.34;5060398;28;20203;-76
2021/03/14 07:08:44;;;;;;;4.27;2.20;;;;;;;3.56;81.45;99346.13;5036622;28;20219;-76
2021/03/14 07:11:12;;;;;;;6.30;1.70;;;;;;;3.55;81.22;99349.59;5040638;28;20194;-74
2021/03/14 07:13:40;;;;;;;2.77;1.70;;;;;;;3.54;82.72;99342.75;5040422;28;20243;-77
2021/03/14 07:16:07;;;;;;;3.17;1.87;;;;;;;3.50;83.08;99366.00;5060944;28;20217;-76
2021/03/14 07:18:34;;;;;;;3.13;2.10;;;;;;;3.47;83.75;99356.63;5060608;28;20214;-74
2021/03/14 07:21:01;;;;;;;3.30;2.30;;;;;;;3.44;83.65;99363.56;5058815;28;20229;-76
2021/03/14 07:23:34;;;;;;;3.57;2.17;;;;;;;3.42;84.97;99355.84;5059272;28;20284;-77
2021/03/14 07:26:01;;;;;;;2.70;1.97;;;;;;;3.39;85.31;99367.06;5059879;28;20195;-77
2021/03/14 07:28:27;;;;;;;3.27;2.10;;;;;;;3.37;86.55;99362.78;5060103;28;20259;-77
2021/03/14 07:30:55;;;;;;;3.90;2.30;;;;;;;3.34;86.91;99368.00;5040403;28;20206;-76
2021/03/14 07:33:21;;;;;;;2.60;2.20;;;;;;;3.32;87.08;99367.16;5059094;28;20213;-76
2021/03/14 07:35:48;;;;;;;2.60;1.90;;;;;;;3.33;87.85;99374.88;5057407;28;20218;-76
2021/03/14 07:38:14;;;;;;;2.37;2.07;;;;;;;3.29;87.97;99380.97;5060720;28;20302;-75
2021/03/14 07:40:41;;;;;;;3.00;2.30;;;;;;;3.27;88.72;99394.75;5062902;28;20604;-77
2021/03/14 07:43:07;;;;;;;4.13;1.90;;;;;;;3.23;89.15;99399.94;5060146;28;20190;-76
2021/03/14 07:45:34;;;;;;;3.30;2.30;;;;;;;3.22;90.03;99408.56;5060757;28;20619;-77
2021/03/14 07:48:01;;;;;;;2.40;2.20;;;;;;;3.21;89.87;99414.56;5056643;28;20233;-77
2021/03/14 07:50:29;;;;;;;4.00;2.70;;;;;;;3.14;90.49;99420.69;5062001;28;20281;-77
2021/03/14 07:53:00;;;;;;;3.43;3.13;;;;;;;3.03;90.96;99420.84;5044338;28;20672;-75
2021/03/14 07:55:27;;;;;;;4.83;2.93;;;;;;;2.97;92.64;99423.53;5058007;28;20730;-74
2021/03/14 07:57:53;;;;;;;6.53;3.20;;;;;;;2.95;94.03;99429.56;5055807;28;20203;-75
2021/03/14 08:00:28;;;;;;;5.13;2.77;;;;;;;2.91;94.47;99433.91;5056052;28;20685;-77
2021/03/14 08:02:55;;;;;;;5.37;3.50;;;;;;;2.87;94.33;99442.53;5055224;28;20722;-77
2021/03/14 08:08:47;;;;;;;4.03;3.57;;;;;;;2.80;96.70;99443.50;5124690;27;20571;-75
2021/03/14 08:11:23;;;;;;;4.63;3.40;;;;;;;2.78;97.06;99460.66;5096124;28;20301;-76
2021/03/14 08:13:49;;;;;;;4.93;3.40;;;;;;;2.79;98.08;99457.22;5104098;28;20689;-75
2021/03/14 08:16:16;;;;;;;7.13;3.80;;;;;;;2.78;98.38;99464.13;5098987;28;20284;-77
2021/03/14 08:18:43;;;;;;;5.53;3.50;;;;;;;2.78;98.72;99471.84;5104639;28;20284;-75
2021/03/14 08:21:40;;;;;;;5.20;3.97;;;;;;;2.76;98.88;99476.16;5100071;28;20672;-76
2021/03/14 08:24:11;;;;;;;6.70;3.83;;;;;;;2.80;99.83;99489.84;5100876;28;20661;-77
2021/03/14 08:26:38;;;;;;;5.87;4.07;;;;;;;2.73;99.50;99488.22;5096539;28;20328;-75
2021/03/14 08:29:09;;;;;;;7.00;4.07;;;;;;;2.70;100.00;99485.66;5101094;28;20213;-77
2021/03/14 08:31:40;;;;;;;5.73;4.40;;;;;;;2.75;100.00;99494.19;5096021;28;20274;-76
2021/03/14 08:34:08;;;;;;;5.37;3.80;;;;;;;2.64;100.00;99504.63;5098521;28;20266;-76
2021/03/14 08:36:40;;;;;;;5.67;4.20;;;;;;;2.56;99.83;99507.25;5097061;28;20746;-76
2021/03/14 08:39:22;;;;;;;9.07;4.20;;;;;;;2.53;100.00;99506.44;5095759;28;20217;-77
2021/03/14 08:41:53;;;;;;;5.83;4.17;;;;;;;2.53;100.00;99516.75;5100409;28;20561;-77
2021/03/14 08:44:35;;;;;;;6.23;4.83;;;;;;;2.52;100.00;99520.19;5096276;28;20727;-76
2021/03/14 08:47:10;;;;;;;7.67;5.57;;;;;;;2.52;100.00;99533.06;5090063;28;20634;-74
2021/03/14 08:49:48;;;;;;;8.43;5.97;;;;;;;2.50;100.00;99535.66;5095159;28;20222;-75
2021/03/14 08:52:18;;;;;;;9.07;7.20;;;;;;;2.54;100.00;99544.19;5097795;28;20202;-74
2021/03/14 08:54:56;;;;;;;6.43;4.50;;;;;;;2.50;100.00;99555.38;5111905;27;20205;-77
2021/03/14 08:57:27;;;;;;;7.90;6.17;;;;;;;2.50;100.00;99561.38;5097512;28;20258;-73
2021/03/14 08:59:58;;;;;;;5.77;4.37;;;;;;;2.51;100.00;99559.66;5078886;28;20233;-74
2021/03/14 09:02:26;;;;;;;6.73;5.50;;;;;;;2.50;100.00;99563.09;5091069;28;20197;-75
2021/03/14 09:05:10;;;;;;;11.67;7.23;;;;;;;2.48;100.00;99565.69;5091315;28;20264;-73
2021/03/14 09:07:44;;;;;;;5.90;4.27;;;;;;;2.52;100.00;99569.94;5095472;28;20221;-74
2021/03/14 09:10:14;;;;;;;5.67;4.80;;;;;;;2.51;100.00;99567.38;5091094;28;20221;-77
2021/03/14 09:12:58;;;;;;;8.10;5.83;;;;;;;2.49;100.00;99576.84;5098405;28;20208;-77
2021/03/14 09:15:32;;;;;;;4.57;3.63;;;;;;;2.48;100.00;99581.13;5079409;28;20212;-77
2021/03/14 09:18:23;;;;;;;3.63;3.03;;;;;;;2.53;100.00;99589.63;5089247;28;20305;-75
2021/03/14 09:20:59;;;;;;;3.63;3.10;;;;;;;2.61;100.00;99585.28;5084441;28;20209;-77
2021/03/14 09:23:40;;;;;;;4.47;2.70;;;;;;;2.64;100.00;99594.69;5079895;28;20217;-74
2021/03/14 09:26:07;;;;;;;4.57;3.23;;;;;;;2.62;100.00;99594.72;5082511;28;20217;-75
2021/03/14 09:28:43;;;;;;;4.57;3.30;;;;;;;2.70;100.00;99604.91;5082449;28;20701;-78
2021/03/14 09:31:11;;;;;;;4.67;2.87;;;;;;;2.80;100.00;99598.81;5084455;28;20225;-76
2021/03/14 09:33:39;;;;;;;6.10;2.93;;;;;;;2.88;100.00;99600.44;5082353;28;20281;-76
2021/03/14 09:36:16;;;;;;;4.80;3.60;;;;;;;3.09;100.00;99601.91;5088527;28;20665;-75
2021/03/14 09:38:59;;;;;;;3.87;3.30;;;;;;;3.20;100.00;99598.34;5081998;28;20268;-76
2021/03/14 09:41:44;;;;;;;3.70;3.03;;;;;;;3.32;100.00;99601.63;5087944;28;20202;-77
2021/03/14 09:44:22;;;;;;;4.40;3.70;;;;;;;3.49;100.00;99607.41;5079007;28;20198;-76
2021/03/14 09:47:01;;;;;;;5.30;3.23;;;;;;;3.56;100.00;99610.78;5086337;28;20259;-76
2021/03/14 09:49:59;;;;;;;5.63;3.10;;;;;;;3.69;100.00;99612.28;5082664;28;20242;-75
2021/03/14 09:52:25;;;;;;;4.50;3.43;;;;;;;3.71;100.00;99613.16;5088381;28;20202;-78
2021/03/14 09:54:52;;;;;;;6.43;3.73;;;;;;;3.79;100.00;99631.06;5085422;28;20283;-74
2021/03/14 09:57:21;;;;;;;5.20;3.80;;;;;;;3.87;100.00;99630.94;5081995;28;20190;-74
2021/03/14 09:59:57;;;;;;;5.23;3.13;;;;;;;3.93;100.00;99629.16;5078018;28;20288;-75
2021/03/14 10:06:37;;;;;;;7.60;3.80;;;;;;;3.86;98.88;99648.16;5079566;28;20222;-72
2021/03/14 10:09:05;;;;;;;3.30;2.80;;;;;;;3.86;98.15;99640.44;5079740;28;20215;-74
2021/03/14 10:11:31;;;;;;;3.13;2.60;;;;;;;3.82;97.32;99641.34;5080441;28;20210;-74
2021/03/14 10:14:03;;;;;;;4.20;2.37;;;;;;;3.89;97.83;99649.88;5080582;28;20281;-72
2021/03/14 10:16:32;;;;;;;4.73;2.70;;;;;;;3.97;98.02;99655.75;5077638;28;20206;-74
2021/03/14 10:19:05;;;;;;;9.03;5.90;;;;;;;4.02;97.40;99645.38;5079196;28;20687;-74
2021/03/14 10:21:34;;;;;;;9.13;6.33;;;;;;;4.05;96.97;99659.06;5082922;28;20237;-75
2021/03/14 10:24:17;;;;;;;4.20;3.47;;;;;;;4.11;97.25;99652.97;5078266;28;20227;-74
2021/03/14 10:26:52;;;;;;;5.63;3.80;;;;;;;4.20;97.10;99649.38;5082601;28;20301;-73
2021/03/14 10:29:27;;;;;;;3.53;2.97;;;;;;;4.35;96.02;99662.91;5080261;28;20703;-72
2021/03/14 10:32:18;;;;;;;3.37;2.17;;;;;;;4.52;95.60;99669.50;5079642;28;20213;-72
2021/03/14 10:34:51;;;;;;;3.90;2.83;;;;;;;4.54;94.04;99675.53;5098604;28;20199;-75
2021/03/14 10:37:30;;;;;;;2.43;2.10;;;;;;;4.74;95.60;99681.19;5081779;28;20213;-75
2021/03/14 10:40:01;;;;;;;2.70;2.03;;;;;;;4.92;95.34;99680.03;5083239;28;20222;-74
2021/03/14 10:42:32;;;;;;;2.80;2.47;;;;;;;4.80;93.58;99689.69;5077707;28;20196;-71
2021/03/14 10:45:04;;;;;;;2.83;2.20;;;;;;;4.73;94.11;99696.69;5082250;28;20252;-72
2021/03/14 10:47:30;;;;;;;2.50;2.30;;;;;;;4.61;93.42;99700.34;5078105;28;20635;-75
2021/03/14 10:50:11;;;;;;;2.37;2.10;;;;;;;4.39;92.70;99709.31;5079667;28;20252;-75
2021/03/14 10:52:40;;;;;;;4.23;2.00;;;;;;;4.30;93.60;99698.25;5083362;28;20205;-75
2021/03/14 10:55:30;;;;;;;3.33;2.23;;;;;;;4.22;94.01;99717.28;5083156;28;20206;-74
2021/03/14 10:58:09;;;;;;;2.77;1.83;;;;;;;4.15;93.34;99724.28;5089465;28;20201;-74
2021/03/14 11:00:40;;;;;;;2.67;1.87;;;;;;;4.14;93.37;99732.91;5072652;28;20747;-74
2021/03/14 11:03:13;;;;;;;4.03;2.17;;;;;;;4.08;92.72;99733.84;5079002;28;20218;-74
2021/03/14 11:05:41;;;;;;;4.40;2.00;;;;;;;4.08;93.63;99731.25;5083825;28;20216;-72
2021/03/14 11:08:09;;;;;;;2.10;1.90;;;;;;;4.08;93.31;99738.13;5083875;28;20242;-75
2021/03/14 11:10:53;;;;;;;2.47;1.80;;;;;;;4.09;93.05;99740.69;5078638;28;20237;-75
2021/03/14 11:13:31;;;;;;;2.83;1.90;;;;;;;4.07;92.98;99747.59;5080323;28;20202;-74
2021/03/14 11:16:27;;;;;;;2.50;1.83;;;;;;;4.08;92.89;99761.34;5079370;28;20195;-74
2021/03/14 11:19:03;;;;;;;2.27;2.00;;;;;;;4.10;93.44;99751.88;5077156;28;20223;-75
2021/03/14 11:21:55;;;;;;;2.47;2.20;;;;;;;4.10;92.76;99764.78;5081709;28;20283;-74
2021/03/14 11:24:29;;;;;;;3.10;2.00;;;;;;;4.16;93.47;99767.28;5083699;28;20197;-74
2021/03/14 11:26:55;;;;;;;2.50;1.90;;;;;;;4.14;92.32;99775.03;5081583;28;21557;-74
2021/03/14 11:29:23;;;;;;;2.73;2.10;;;;;;;4.21;92.84;99765.47;5080624;28;20251;-72
2021/03/14 11:32:05;;;;;;;4.67;2.60;;;;;;;4.35;92.08;99770.44;5081915;28;21009;-72
2021/03/14 11:34:31;;;;;;;3.27;2.27;;;;;;;4.45;92.25;99772.03;5082192;28;20205;-74
2021/03/14 11:37:17;;;;;;;2.40;2.20;;;;;;;4.61;91.73;99780.41;5084192;28;20206;-73
2021/03/14 11:39:58;;;;;;;4.60;3.00;;;;;;;4.79;92.39;99779.25;5081382;28;20266;-74
2021/03/14 11:42:33;;;;;;;4.67;2.47;;;;;;;4.94;91.58;99791.06;5080539;28;20197;-71
2021/03/14 11:45:18;;;;;;;2.77;2.10;;;;;;;5.09;89.53;99790.81;5079780;28;20251;-74
2021/03/14 11:47:45;;;;;;;4.77;2.37;;;;;;;5.25;88.96;99787.97;5084107;28;20227;-75
2021/03/14 11:50:47;;;;;;;4.07;2.27;;;;;;;5.28;86.76;99798.25;5077598;28;20669;-73
2021/03/14 11:53:17;;;;;;;3.00;2.23;;;;;;;5.25;87.27;99787.97;5084295;28;20220;-74
2021/03/14 11:55:48;;;;;;;2.67;2.10;;;;;;;5.27;87.21;99797.38;5083136;28;20194;-74
2021/03/14 11:58:17;;;;;;;3.17;2.00;;;;;;;5.26;87.54;99792.28;5082419;28;20213;-72
2021/03/14 12:00:44;;;;;;;2.57;2.00;;;;;;;5.21;87.34;99794.91;5080389;28;20276;-73
2021/03/14 12:03:12;;;;;;;6.33;2.23;;;;;;;5.26;87.62;99805.19;5082545;28;20250;-75